sensor_id;sensor_type;location;lat;lon;timestamp;P1;durP1;ratioP1;P2;durP2;ratioP2
53977;SDS011;39886;47.984;-1.586;2023-12-07T00:01:33;2.80;;;2.50;;
53977;SDS011;39886;47.984;-1.586;2023-12-07T00:03:59;3.28;;;2.60;;
53977;SDS011;39886;47.984;-1.586;2023-12-07T00:06:26;3.65;;;2.80;;
53977;SDS011;39886;47.984;-1.586;2023-12-07T00:08:52;3.92;;;2.85;;
53977;SDS011;39886;47.984;-1.586;2023-12-07T00:11:17;2.92;;;2.40;;
53977;SDS011;39886;47.984;-1.586;2023-12-07T00:13:43;3.15;;;2.85;;
53977;SDS011;39886;47.984;-1.586;2023-12-07T00:16:09;3.50;;;2.70;;
53977;SDS011;39886;47.984;-1.586;2023-12-07T00:18:35;2.83;;;2.40;;
53977;SDS011;39886;47.984;-1.586;2023-12-07T00:21:01;3.13;;;2.35;;
53977;SDS011;39886;47.984;-1.586;2023-12-07T00:23:26;3.90;;;2.40;;
53977;SDS011;39886;47.984;-1.586;2023-12-07T00:25:52;3.40;;;2.60;;
53977;SDS011;39886;47.984;-1.586;2023-12-07T00:28:18;3.60;;;2.70;;
53977;SDS011;39886;47.984;-1.586;2023-12-07T00:30:43;2.88;;;2.58;;
53977;SDS011;39886;47.984;-1.586;2023-12-07T00:33:09;3.80;;;2.60;;
53977;SDS011;39886;47.984;-1.586;2023-12-07T00:35:35;3.80;;;2.83;;
53977;SDS011;39886;47.984;-1.586;2023-12-07T00:38:01;4.65;;;2.80;;
53977;SDS011;39886;47.984;-1.586;2023-12-07T00:40:27;3.38;;;2.50;;
53977;SDS011;39886;47.984;-1.586;2023-12-07T00:42:53;4.43;;;2.95;;
53977;SDS011;39886;47.984;-1.586;2023-12-07T00:45:18;3.65;;;2.63;;
53977;SDS011;39886;47.984;-1.586;2023-12-07T00:47:44;3.33;;;2.35;;
53977;SDS011;39886;47.984;-1.586;2023-12-07T00:50:13;3.10;;;2.65;;
53977;SDS011;39886;47.984;-1.586;2023-12-07T00:52:39;3.13;;;2.50;;
53977;SDS011;39886;47.984;-1.586;2023-12-07T00:55:05;3.08;;;2.78;;
53977;SDS011;39886;47.984;-1.586;2023-12-07T00:57:31;2.90;;;2.60;;
53977;SDS011;39886;47.984;-1.586;2023-12-07T00:59:56;2.60;;;2.30;;
53977;SDS011;39886;47.984;-1.586;2023-12-07T01:02:22;3.22;;;2.42;;
53977;SDS011;39886;47.984;-1.586;2023-12-07T01:04:48;3.30;;;2.50;;
53977;SDS011;39886;47.984;-1.586;2023-12-07T01:07:14;2.63;;;2.35;;
53977;SDS011;39886;47.984;-1.586;2023-12-07T01:09:39;3.35;;;2.50;;
53977;SDS011;39886;47.984;-1.586;2023-12-07T01:12:05;3.38;;;2.40;;
53977;SDS011;39886;47.984;-1.586;2023-12-07T01:14:31;3.08;;;2.47;;
53977;SDS011;39886;47.984;-1.586;2023-12-07T01:16:57;3.25;;;2.60;;
53977;SDS011;39886;47.984;-1.586;2023-12-07T01:19:23;3.33;;;2.50;;
53977;SDS011;39886;47.984;-1.586;2023-12-07T01:21:50;3.45;;;2.60;;
53977;SDS011;39886;47.984;-1.586;2023-12-07T01:24:15;3.20;;;2.40;;
53977;SDS011;39886;47.984;-1.586;2023-12-07T01:26:41;2.63;;;2.40;;
53977;SDS011;39886;47.984;-1.586;2023-12-07T01:29:07;3.30;;;2.60;;
53977;SDS011;39886;47.984;-1.586;2023-12-07T01:31:33;3.22;;;2.67;;
53977;SDS011;39886;47.984;-1.586;2023-12-07T01:33:58;2.88;;;2.58;;
53977;SDS011;39886;47.984;-1.586;2023-12-07T01:36:24;3.78;;;2.58;;
53977;SDS011;39886;47.984;-1.586;2023-12-07T01:38:50;3.42;;;2.60;;
53977;SDS011;39886;47.984;-1.586;2023-12-07T01:41:16;2.60;;;2.40;;
53977;SDS011;39886;47.984;-1.586;2023-12-07T01:43:47;3.28;;;2.83;;
53977;SDS011;39886;47.984;-1.586;2023-12-07T01:46:14;3.20;;;2.55;;
53977;SDS011;39886;47.984;-1.586;2023-12-07T01:48:41;2.90;;;2.60;;
53977;SDS011;39886;47.984;-1.586;2023-12-07T01:51:08;3.72;;;2.15;;
53977;SDS011;39886;47.984;-1.586;2023-12-07T01:53:36;2.55;;;2.35;;
53977;SDS011;39886;47.984;-1.586;2023-12-07T01:56:04;2.72;;;2.30;;
53977;SDS011;39886;47.984;-1.586;2023-12-07T01:58:30;4.00;;;2.70;;
53977;SDS011;39886;47.984;-1.586;2023-12-07T02:00:56;3.75;;;2.50;;
53977;SDS011;39886;47.984;-1.586;2023-12-07T02:03:22;3.83;;;2.47;;
53977;SDS011;39886;47.984;-1.586;2023-12-07T02:05:49;2.45;;;2.25;;
53977;SDS011;39886;47.984;-1.586;2023-12-07T02:08:16;2.35;;;2.15;;
53977;SDS011;39886;47.984;-1.586;2023-12-07T02:10:41;3.45;;;2.70;;
53977;SDS011;39886;47.984;-1.586;2023-12-07T02:13:07;3.45;;;2.45;;
53977;SDS011;39886;47.984;-1.586;2023-12-07T02:15:33;3.05;;;2.33;;
53977;SDS011;39886;47.984;-1.586;2023-12-07T02:20:59;2.50;;;2.30;;
53977;SDS011;39886;47.984;-1.586;2023-12-07T02:23:50;2.63;;;2.25;;
53977;SDS011;39886;47.984;-1.586;2023-12-07T02:26:21;2.25;;;2.05;;
53977;SDS011;39886;47.984;-1.586;2023-12-07T02:28:49;2.30;;;2.10;;
53977;SDS011;39886;47.984;-1.586;2023-12-07T02:31:15;2.40;;;2.20;;
53977;SDS011;39886;47.984;-1.586;2023-12-07T02:33:41;3.35;;;2.42;;
53977;SDS011;39886;47.984;-1.586;2023-12-07T02:36:07;2.40;;;2.20;;
53977;SDS011;39886;47.984;-1.586;2023-12-07T02:38:32;2.45;;;2.20;;
53977;SDS011;39886;47.984;-1.586;2023-12-07T02:40:59;3.22;;;2.30;;
53977;SDS011;39886;47.984;-1.586;2023-12-07T02:43:26;2.30;;;2.10;;
53977;SDS011;39886;47.984;-1.586;2023-12-07T02:45:53;2.50;;;2.13;;
53977;SDS011;39886;47.984;-1.586;2023-12-07T02:48:20;2.63;;;2.30;;
53977;SDS011;39886;47.984;-1.586;2023-12-07T02:50:46;2.38;;;2.17;;
53977;SDS011;39886;47.984;-1.586;2023-12-07T02:53:12;2.58;;;2.17;;
53977;SDS011;39886;47.984;-1.586;2023-12-07T02:55:38;2.45;;;1.92;;
53977;SDS011;39886;47.984;-1.586;2023-12-07T02:58:04;2.95;;;2.20;;
53977;SDS011;39886;47.984;-1.586;2023-12-07T03:00:30;2.70;;;2.10;;
53977;SDS011;39886;47.984;-1.586;2023-12-07T03:02:55;2.97;;;2.28;;
53977;SDS011;39886;47.984;-1.586;2023-12-07T03:05:21;2.55;;;2.10;;
53977;SDS011;39886;47.984;-1.586;2023-12-07T03:07:48;2.55;;;2.20;;
53977;SDS011;39886;47.984;-1.586;2023-12-07T03:10:13;2.60;;;2.28;;
53977;SDS011;39886;47.984;-1.586;2023-12-07T03:12:39;2.80;;;2.20;;
53977;SDS011;39886;47.984;-1.586;2023-12-07T03:15:05;2.60;;;2.30;;
53977;SDS011;39886;47.984;-1.586;2023-12-07T03:17:31;2.28;;;2.00;;
53977;SDS011;39886;47.984;-1.586;2023-12-07T03:19:57;2.50;;;2.30;;
53977;SDS011;39886;47.984;-1.586;2023-12-07T03:22:22;2.58;;;2.15;;
53977;SDS011;39886;47.984;-1.586;2023-12-07T03:24:50;2.65;;;2.03;;
53977;SDS011;39886;47.984;-1.586;2023-12-07T03:27:17;2.58;;;2.38;;
53977;SDS011;39886;47.984;-1.586;2023-12-07T03:29:43;2.40;;;2.20;;
53977;SDS011;39886;47.984;-1.586;2023-12-07T03:32:09;2.38;;;2.17;;
53977;SDS011;39886;47.984;-1.586;2023-12-07T03:34:34;2.22;;;2.00;;
53977;SDS011;39886;47.984;-1.586;2023-12-07T03:37:00;2.50;;;2.30;;
53977;SDS011;39886;47.984;-1.586;2023-12-07T03:39:26;2.40;;;2.13;;
53977;SDS011;39886;47.984;-1.586;2023-12-07T03:41:52;3.50;;;1.92;;
53977;SDS011;39886;47.984;-1.586;2023-12-07T03:44:18;3.05;;;2.05;;
53977;SDS011;39886;47.984;-1.586;2023-12-07T03:46:43;2.50;;;2.10;;
53977;SDS011;39886;47.984;-1.586;2023-12-07T03:49:09;2.58;;;2.25;;
53977;SDS011;39886;47.984;-1.586;2023-12-07T03:51:35;2.10;;;1.92;;
53977;SDS011;39886;47.984;-1.586;2023-12-07T03:54:02;2.30;;;2.10;;
53977;SDS011;39886;47.984;-1.586;2023-12-07T03:56:29;2.13;;;1.92;;
53977;SDS011;39886;47.984;-1.586;2023-12-07T03:58:55;2.58;;;2.20;;
53977;SDS011;39886;47.984;-1.586;2023-12-07T04:01:25;2.63;;;2.10;;
53977;SDS011;39886;47.984;-1.586;2023-12-07T04:03:51;2.20;;;2.00;;
53977;SDS011;39886;47.984;-1.586;2023-12-07T04:06:18;2.58;;;2.00;;
53977;SDS011;39886;47.984;-1.586;2023-12-07T04:08:44;2.50;;;2.30;;
53977;SDS011;39886;47.984;-1.586;2023-12-07T04:11:10;2.70;;;2.00;;
53977;SDS011;39886;47.984;-1.586;2023-12-07T04:13:36;2.17;;;1.98;;
53977;SDS011;39886;47.984;-1.586;2023-12-07T04:16:01;2.30;;;1.80;;
53977;SDS011;39886;47.984;-1.586;2023-12-07T04:18:28;1.90;;;1.80;;
53977;SDS011;39886;47.984;-1.586;2023-12-07T04:20:54;2.22;;;1.88;;
53977;SDS011;39886;47.984;-1.586;2023-12-07T04:23:19;2.83;;;1.85;;
53977;SDS011;39886;47.984;-1.586;2023-12-07T04:25:45;2.28;;;1.98;;
53977;SDS011;39886;47.984;-1.586;2023-12-07T04:28:11;2.38;;;2.00;;
53977;SDS011;39886;47.984;-1.586;2023-12-07T04:30:37;2.20;;;1.80;;
53977;SDS011;39886;47.984;-1.586;2023-12-07T04:33:02;2.70;;;1.98;;
53977;SDS011;39886;47.984;-1.586;2023-12-07T04:35:28;2.63;;;2.00;;
53977;SDS011;39886;47.984;-1.586;2023-12-07T04:37:54;2.30;;;2.10;;
53977;SDS011;39886;47.984;-1.586;2023-12-07T04:40:20;2.78;;;1.88;;
53977;SDS011;39886;47.984;-1.586;2023-12-07T04:42:46;2.33;;;1.73;;
53977;SDS011;39886;47.984;-1.586;2023-12-07T04:45:11;2.15;;;1.92;;
53977;SDS011;39886;47.984;-1.586;2023-12-07T04:47:37;1.92;;;1.83;;
53977;SDS011;39886;47.984;-1.586;2023-12-07T04:50:03;2.85;;;2.10;;
53977;SDS011;39886;47.984;-1.586;2023-12-07T04:52:29;2.10;;;1.73;;
53977;SDS011;39886;47.984;-1.586;2023-12-07T04:54:55;2.20;;;2.00;;
53977;SDS011;39886;47.984;-1.586;2023-12-07T04:57:21;1.73;;;1.63;;
53977;SDS011;39886;47.984;-1.586;2023-12-07T04:59:46;2.00;;;1.80;;
53977;SDS011;39886;47.984;-1.586;2023-12-07T05:02:15;1.60;;;1.50;;
53977;SDS011;39886;47.984;-1.586;2023-12-07T05:04:42;1.98;;;1.77;;
53977;SDS011;39886;47.984;-1.586;2023-12-07T05:07:08;1.83;;;1.65;;
53977;SDS011;39886;47.984;-1.586;2023-12-07T05:09:34;1.95;;;1.50;;
53977;SDS011;39886;47.984;-1.586;2023-12-07T05:11:59;2.13;;;1.70;;
53977;SDS011;39886;47.984;-1.586;2023-12-07T05:14:25;2.30;;;1.70;;
53977;SDS011;39886;47.984;-1.586;2023-12-07T05:16:51;2.03;;;1.70;;
53977;SDS011;39886;47.984;-1.586;2023-12-07T05:19:21;1.88;;;1.73;;
53977;SDS011;39886;47.984;-1.586;2023-12-07T05:21:50;2.25;;;2.00;;
53977;SDS011;39886;47.984;-1.586;2023-12-07T05:24:17;2.33;;;1.90;;
53977;SDS011;39886;47.984;-1.586;2023-12-07T05:26:43;2.25;;;1.80;;
53977;SDS011;39886;47.984;-1.586;2023-12-07T05:29:13;2.13;;;1.83;;
53977;SDS011;39886;47.984;-1.586;2023-12-07T05:31:39;1.85;;;1.70;;
53977;SDS011;39886;47.984;-1.586;2023-12-07T05:34:05;2.10;;;1.90;;
53977;SDS011;39886;47.984;-1.586;2023-12-07T05:36:31;1.88;;;1.60;;
53977;SDS011;39886;47.984;-1.586;2023-12-07T05:38:57;1.92;;;1.65;;
53977;SDS011;39886;47.984;-1.586;2023-12-07T05:41:23;2.78;;;1.92;;
53977;SDS011;39886;47.984;-1.586;2023-12-07T05:43:49;1.95;;;1.50;;
53977;SDS011;39886;47.984;-1.586;2023-12-07T05:46:14;2.05;;;1.85;;
53977;SDS011;39886;47.984;-1.586;2023-12-07T05:48:43;1.95;;;1.67;;
53977;SDS011;39886;47.984;-1.586;2023-12-07T05:51:15;2.95;;;2.03;;
53977;SDS011;39886;47.984;-1.586;2023-12-07T05:53:42;1.92;;;1.60;;
53977;SDS011;39886;47.984;-1.586;2023-12-07T05:56:09;2.70;;;2.00;;
53977;SDS011;39886;47.984;-1.586;2023-12-07T05:58:35;2.25;;;1.80;;
53977;SDS011;39886;47.984;-1.586;2023-12-07T06:01:01;1.83;;;1.58;;
53977;SDS011;39886;47.984;-1.586;2023-12-07T06:03:27;1.98;;;1.48;;
53977;SDS011;39886;47.984;-1.586;2023-12-07T06:05:53;1.52;;;1.42;;
53977;SDS011;39886;47.984;-1.586;2023-12-07T06:08:20;1.65;;;1.52;;
53977;SDS011;39886;47.984;-1.586;2023-12-07T06:10:46;1.83;;;1.65;;
53977;SDS011;39886;47.984;-1.586;2023-12-07T06:13:12;1.92;;;1.75;;
53977;SDS011;39886;47.984;-1.586;2023-12-07T06:15:39;3.30;;;1.90;;
53977;SDS011;39886;47.984;-1.586;2023-12-07T06:18:05;1.92;;;1.73;;
53977;SDS011;39886;47.984;-1.586;2023-12-07T06:20:31;2.53;;;1.70;;
53977;SDS011;39886;47.984;-1.586;2023-12-07T06:22:57;1.65;;;1.50;;
53977;SDS011;39886;47.984;-1.586;2023-12-07T06:25:23;1.80;;;1.65;;
53977;SDS011;39886;47.984;-1.586;2023-12-07T06:27:49;1.70;;;1.58;;
53977;SDS011;39886;47.984;-1.586;2023-12-07T06:30:14;1.77;;;1.67;;
53977;SDS011;39886;47.984;-1.586;2023-12-07T06:32:40;2.08;;;1.73;;
53977;SDS011;39886;47.984;-1.586;2023-12-07T06:35:06;2.25;;;1.60;;
53977;SDS011;39886;47.984;-1.586;2023-12-07T06:37:32;1.83;;;1.67;;
53977;SDS011;39886;47.984;-1.586;2023-12-07T06:39:58;2.03;;;1.83;;
53977;SDS011;39886;47.984;-1.586;2023-12-07T06:42:25;1.80;;;1.60;;
53977;SDS011;39886;47.984;-1.586;2023-12-07T06:44:51;2.05;;;1.70;;
53977;SDS011;39886;47.984;-1.586;2023-12-07T06:47:17;2.33;;;1.50;;
53977;SDS011;39886;47.984;-1.586;2023-12-07T06:49:43;1.70;;;1.60;;
53977;SDS011;39886;47.984;-1.586;2023-12-07T06:52:11;1.60;;;1.50;;
53977;SDS011;39886;47.984;-1.586;2023-12-07T06:54:37;1.83;;;1.73;;
53977;SDS011;39886;47.984;-1.586;2023-12-07T06:57:04;1.55;;;1.38;;
53977;SDS011;39886;47.984;-1.586;2023-12-07T06:59:31;1.38;;;1.27;;
53977;SDS011;39886;47.984;-1.586;2023-12-07T07:02:00;1.77;;;1.67;;
53977;SDS011;39886;47.984;-1.586;2023-12-07T07:04:27;1.63;;;1.52;;
53977;SDS011;39886;47.984;-1.586;2023-12-07T07:06:52;1.45;;;1.35;;
53977;SDS011;39886;47.984;-1.586;2023-12-07T07:09:18;1.77;;;1.67;;
53977;SDS011;39886;47.984;-1.586;2023-12-07T07:11:49;1.85;;;1.40;;
53977;SDS011;39886;47.984;-1.586;2023-12-07T07:14:16;1.98;;;1.60;;
53977;SDS011;39886;47.984;-1.586;2023-12-07T07:16:42;2.00;;;1.60;;
53977;SDS011;39886;47.984;-1.586;2023-12-07T07:19:08;1.63;;;1.50;;
53977;SDS011;39886;47.984;-1.586;2023-12-07T07:21:34;2.40;;;1.75;;
53977;SDS011;39886;47.984;-1.586;2023-12-07T07:24:00;2.40;;;1.60;;
53977;SDS011;39886;47.984;-1.586;2023-12-07T07:26:25;2.28;;;1.58;;
53977;SDS011;39886;47.984;-1.586;2023-12-07T07:28:54;1.60;;;1.50;;
53977;SDS011;39886;47.984;-1.586;2023-12-07T07:31:20;2.80;;;1.50;;
53977;SDS011;39886;47.984;-1.586;2023-12-07T07:33:46;1.73;;;1.60;;
53977;SDS011;39886;47.984;-1.586;2023-12-07T07:36:12;2.05;;;1.60;;
53977;SDS011;39886;47.984;-1.586;2023-12-07T07:38:40;2.25;;;1.75;;
53977;SDS011;39886;47.984;-1.586;2023-12-07T07:41:06;2.78;;;1.63;;
53977;SDS011;39886;47.984;-1.586;2023-12-07T07:43:31;1.60;;;1.50;;
53977;SDS011;39886;47.984;-1.586;2023-12-07T07:45:59;1.92;;;1.60;;
53977;SDS011;39886;47.984;-1.586;2023-12-07T07:48:25;1.60;;;1.45;;
53977;SDS011;39886;47.984;-1.586;2023-12-07T07:50:51;2.03;;;1.50;;
53977;SDS011;39886;47.984;-1.586;2023-12-07T07:53:17;3.88;;;1.60;;
53977;SDS011;39886;47.984;-1.586;2023-12-07T07:55:43;1.60;;;1.45;;
53977;SDS011;39886;47.984;-1.586;2023-12-07T07:58:08;1.50;;;1.40;;
53977;SDS011;39886;47.984;-1.586;2023-12-07T08:00:34;1.98;;;1.58;;
53977;SDS011;39886;47.984;-1.586;2023-12-07T08:03:00;1.73;;;1.50;;
53977;SDS011;39886;47.984;-1.586;2023-12-07T08:05:26;2.00;;;1.73;;
53977;SDS011;39886;47.984;-1.586;2023-12-07T08:07:51;3.10;;;1.60;;
53977;SDS011;39886;47.984;-1.586;2023-12-07T08:10:17;2.47;;;1.65;;
53977;SDS011;39886;47.984;-1.586;2023-12-07T08:12:43;2.30;;;1.60;;
53977;SDS011;39886;47.984;-1.586;2023-12-07T08:15:09;2.33;;;1.70;;
53977;SDS011;39886;47.984;-1.586;2023-12-07T08:17:41;2.03;;;1.70;;
53977;SDS011;39886;47.984;-1.586;2023-12-07T08:20:08;1.85;;;1.50;;
53977;SDS011;39886;47.984;-1.586;2023-12-07T08:22:41;6.57;;;1.30;;
53977;SDS011;39886;47.984;-1.586;2023-12-07T08:25:07;3.63;;;1.63;;
53977;SDS011;39886;47.984;-1.586;2023-12-07T08:27:34;2.47;;;1.60;;
53977;SDS011;39886;47.984;-1.586;2023-12-07T08:30:01;3.03;;;1.50;;
53977;SDS011;39886;47.984;-1.586;2023-12-07T08:32:27;1.80;;;1.50;;
53977;SDS011;39886;47.984;-1.586;2023-12-07T08:34:54;2.17;;;1.55;;
53977;SDS011;39886;47.984;-1.586;2023-12-07T08:37:20;2.35;;;1.23;;
53977;SDS011;39886;47.984;-1.586;2023-12-07T08:39:46;1.90;;;1.60;;
53977;SDS011;39886;47.984;-1.586;2023-12-07T08:42:11;2.13;;;1.30;;
53977;SDS011;39886;47.984;-1.586;2023-12-07T08:44:37;4.65;;;1.52;;
53977;SDS011;39886;47.984;-1.586;2023-12-07T08:47:03;3.88;;;1.50;;
53977;SDS011;39886;47.984;-1.586;2023-12-07T08:49:30;2.38;;;1.50;;
53977;SDS011;39886;47.984;-1.586;2023-12-07T08:51:56;1.95;;;1.50;;
53977;SDS011;39886;47.984;-1.586;2023-12-07T08:54:22;2.80;;;1.67;;
53977;SDS011;39886;47.984;-1.586;2023-12-07T08:56:48;1.83;;;1.33;;
53977;SDS011;39886;47.984;-1.586;2023-12-07T08:59:13;2.92;;;1.67;;
53977;SDS011;39886;47.984;-1.586;2023-12-07T09:01:39;3.38;;;1.40;;
53977;SDS011;39886;47.984;-1.586;2023-12-07T09:04:05;5.55;;;1.70;;
53977;SDS011;39886;47.984;-1.586;2023-12-07T09:06:31;2.92;;;1.60;;
53977;SDS011;39886;47.984;-1.586;2023-12-07T09:08:56;3.67;;;1.60;;
53977;SDS011;39886;47.984;-1.586;2023-12-07T09:11:22;3.50;;;1.50;;
53977;SDS011;39886;47.984;-1.586;2023-12-07T09:13:48;2.88;;;1.38;;
53977;SDS011;39886;47.984;-1.586;2023-12-07T09:16:14;5.93;;;2.05;;
53977;SDS011;39886;47.984;-1.586;2023-12-07T09:18:41;2.45;;;1.50;;
53977;SDS011;39886;47.984;-1.586;2023-12-07T09:21:07;2.38;;;1.45;;
53977;SDS011;39886;47.984;-1.586;2023-12-07T09:23:33;2.75;;;1.40;;
53977;SDS011;39886;47.984;-1.586;2023-12-07T09:26:00;3.08;;;1.60;;
53977;SDS011;39886;47.984;-1.586;2023-12-07T09:28:31;1.65;;;1.50;;
53977;SDS011;39886;47.984;-1.586;2023-12-07T09:33:24;4.82;;;1.50;;
53977;SDS011;39886;47.984;-1.586;2023-12-07T09:35:50;2.70;;;1.40;;
53977;SDS011;39886;47.984;-1.586;2023-12-07T09:38:16;2.20;;;1.63;;
53977;SDS011;39886;47.984;-1.586;2023-12-07T09:40:42;4.70;;;1.50;;
53977;SDS011;39886;47.984;-1.586;2023-12-07T09:43:08;4.28;;;1.65;;
53977;SDS011;39886;47.984;-1.586;2023-12-07T09:45:34;2.42;;;1.48;;
53977;SDS011;39886;47.984;-1.586;2023-12-07T09:48:00;5.88;;;1.55;;
53977;SDS011;39886;47.984;-1.586;2023-12-07T09:50:26;2.97;;;1.50;;
53977;SDS011;39886;47.984;-1.586;2023-12-07T09:52:56;2.47;;;1.60;;
53977;SDS011;39886;47.984;-1.586;2023-12-07T09:55:23;3.42;;;1.55;;
53977;SDS011;39886;47.984;-1.586;2023-12-07T09:57:50;2.25;;;1.45;;
53977;SDS011;39886;47.984;-1.586;2023-12-07T10:00:16;1.50;;;1.33;;
53977;SDS011;39886;47.984;-1.586;2023-12-07T10:02:44;8.00;;;1.80;;
53977;SDS011;39886;47.984;-1.586;2023-12-07T10:05:11;2.60;;;1.48;;
53977;SDS011;39886;47.984;-1.586;2023-12-07T10:07:45;2.45;;;1.30;;
53977;SDS011;39886;47.984;-1.586;2023-12-07T10:10:14;2.42;;;1.30;;
53977;SDS011;39886;47.984;-1.586;2023-12-07T10:12:53;3.17;;;1.48;;
53977;SDS011;39886;47.984;-1.586;2023-12-07T10:15:23;2.45;;;1.48;;
53977;SDS011;39886;47.984;-1.586;2023-12-07T10:17:53;2.80;;;1.50;;
53977;SDS011;39886;47.984;-1.586;2023-12-07T10:20:23;3.38;;;1.30;;
53977;SDS011;39886;47.984;-1.586;2023-12-07T10:23:09;2.60;;;1.27;;
53977;SDS011;39886;47.984;-1.586;2023-12-07T10:25:39;3.95;;;1.48;;
53977;SDS011;39886;47.984;-1.586;2023-12-07T10:28:07;1.87;;;1.60;;
53977;SDS011;39886;47.984;-1.586;2023-12-07T10:30:35;1.88;;;1.50;;
53977;SDS011;39886;47.984;-1.586;2023-12-07T10:33:04;2.50;;;1.38;;
53977;SDS011;39886;47.984;-1.586;2023-12-07T10:35:32;2.65;;;1.38;;
53977;SDS011;39886;47.984;-1.586;2023-12-07T10:37:58;4.63;;;1.85;;
53977;SDS011;39886;47.984;-1.586;2023-12-07T10:40:23;3.75;;;1.80;;
53977;SDS011;39886;47.984;-1.586;2023-12-07T10:42:49;3.67;;;1.55;;
53977;SDS011;39886;47.984;-1.586;2023-12-07T10:45:21;2.42;;;1.60;;
53977;SDS011;39886;47.984;-1.586;2023-12-07T10:47:51;2.00;;;1.60;;
53977;SDS011;39886;47.984;-1.586;2023-12-07T10:50:20;3.83;;;1.75;;
53977;SDS011;39886;47.984;-1.586;2023-12-07T10:52:50;2.05;;;1.65;;
53977;SDS011;39886;47.984;-1.586;2023-12-07T10:55:21;2.75;;;1.80;;
53977;SDS011;39886;47.984;-1.586;2023-12-07T10:57:53;2.67;;;2.00;;
53977;SDS011;39886;47.984;-1.586;2023-12-07T11:00:19;4.30;;;1.75;;
53977;SDS011;39886;47.984;-1.586;2023-12-07T11:02:49;2.20;;;1.90;;
53977;SDS011;39886;47.984;-1.586;2023-12-07T11:05:17;3.08;;;1.83;;
53977;SDS011;39886;47.984;-1.586;2023-12-07T11:10:21;3.17;;;1.75;;
53977;SDS011;39886;47.984;-1.586;2023-12-07T11:12:56;3.00;;;1.63;;
53977;SDS011;39886;47.984;-1.586;2023-12-07T11:15:42;3.03;;;1.88;;
53977;SDS011;39886;47.984;-1.586;2023-12-07T11:18:08;2.85;;;1.75;;
53977;SDS011;39886;47.984;-1.586;2023-12-07T11:20:41;2.67;;;1.77;;
53977;SDS011;39886;47.984;-1.586;2023-12-07T11:23:09;3.05;;;1.80;;
53977;SDS011;39886;47.984;-1.586;2023-12-07T11:25:38;3.78;;;2.00;;
53977;SDS011;39886;47.984;-1.586;2023-12-07T11:28:04;2.90;;;1.70;;
53977;SDS011;39886;47.984;-1.586;2023-12-07T11:30:32;2.13;;;1.45;;
53977;SDS011;39886;47.984;-1.586;2023-12-07T11:33:00;2.08;;;1.60;;
53977;SDS011;39886;47.984;-1.586;2023-12-07T11:35:28;2.13;;;1.40;;
53977;SDS011;39886;47.984;-1.586;2023-12-07T11:38:04;3.55;;;1.70;;
53977;SDS011;39886;47.984;-1.586;2023-12-07T11:40:42;3.42;;;1.60;;
53977;SDS011;39886;47.984;-1.586;2023-12-07T11:43:18;3.08;;;1.60;;
53977;SDS011;39886;47.984;-1.586;2023-12-07T11:46:03;3.38;;;1.88;;
53977;SDS011;39886;47.984;-1.586;2023-12-07T11:48:29;1.88;;;1.50;;
53977;SDS011;39886;47.984;-1.586;2023-12-07T11:50:55;4.10;;;1.75;;
53977;SDS011;39886;47.984;-1.586;2023-12-07T11:53:24;1.23;;;1.13;;
53977;SDS011;39886;47.984;-1.586;2023-12-07T11:55:55;2.05;;;1.48;;
53977;SDS011;39886;47.984;-1.586;2023-12-07T11:58:26;1.45;;;1.35;;
53977;SDS011;39886;47.984;-1.586;2023-12-07T12:00:53;3.15;;;1.50;;
53977;SDS011;39886;47.984;-1.586;2023-12-07T12:03:21;1.60;;;1.40;;
53977;SDS011;39886;47.984;-1.586;2023-12-07T12:05:47;2.72;;;1.60;;
53977;SDS011;39886;47.984;-1.586;2023-12-07T12:08:14;2.33;;;1.48;;
53977;SDS011;39886;47.984;-1.586;2023-12-07T12:10:40;2.50;;;1.40;;
53977;SDS011;39886;47.984;-1.586;2023-12-07T12:13:09;2.17;;;1.60;;
53977;SDS011;39886;47.984;-1.586;2023-12-07T12:15:35;1.80;;;1.45;;
53977;SDS011;39886;47.984;-1.586;2023-12-07T12:18:01;2.42;;;1.45;;
53977;SDS011;39886;47.984;-1.586;2023-12-07T12:20:27;2.85;;;1.48;;
53977;SDS011;39886;47.984;-1.586;2023-12-07T12:22:53;2.67;;;1.70;;
53977;SDS011;39886;47.984;-1.586;2023-12-07T12:25:26;2.78;;;1.80;;
53977;SDS011;39886;47.984;-1.586;2023-12-07T12:27:56;2.30;;;1.70;;
53977;SDS011;39886;47.984;-1.586;2023-12-07T12:30:29;2.78;;;1.70;;
53977;SDS011;39886;47.984;-1.586;2023-12-07T12:32:56;2.28;;;1.52;;
53977;SDS011;39886;47.984;-1.586;2023-12-07T12:35:22;2.05;;;1.23;;
53977;SDS011;39886;47.984;-1.586;2023-12-07T12:37:49;3.10;;;1.60;;
53977;SDS011;39886;47.984;-1.586;2023-12-07T12:40:19;2.30;;;1.50;;
53977;SDS011;39886;47.984;-1.586;2023-12-07T12:42:46;1.88;;;1.55;;
53977;SDS011;39886;47.984;-1.586;2023-12-07T12:45:15;2.92;;;1.58;;
53977;SDS011;39886;47.984;-1.586;2023-12-07T12:47:43;2.10;;;1.50;;
53977;SDS011;39886;47.984;-1.586;2023-12-07T12:50:10;2.22;;;1.80;;
53977;SDS011;39886;47.984;-1.586;2023-12-07T12:52:55;2.70;;;1.35;;
53977;SDS011;39886;47.984;-1.586;2023-12-07T12:55:25;2.08;;;1.40;;
53977;SDS011;39886;47.984;-1.586;2023-12-07T12:57:51;2.60;;;1.45;;
53977;SDS011;39886;47.984;-1.586;2023-12-07T13:00:17;2.97;;;1.52;;
53977;SDS011;39886;47.984;-1.586;2023-12-07T13:02:43;2.05;;;1.52;;
53977;SDS011;39886;47.984;-1.586;2023-12-07T13:05:08;2.50;;;1.40;;
53977;SDS011;39886;47.984;-1.586;2023-12-07T13:07:34;2.65;;;1.30;;
53977;SDS011;39886;47.984;-1.586;2023-12-07T13:10:00;2.30;;;1.35;;
53977;SDS011;39886;47.984;-1.586;2023-12-07T13:12:27;3.35;;;1.60;;
53977;SDS011;39886;47.984;-1.586;2023-12-07T13:14:55;2.70;;;1.50;;
53977;SDS011;39886;47.984;-1.586;2023-12-07T13:17:21;2.38;;;1.40;;
53977;SDS011;39886;47.984;-1.586;2023-12-07T13:19:46;2.40;;;1.52;;
53977;SDS011;39886;47.984;-1.586;2023-12-07T13:22:12;3.63;;;1.70;;
53977;SDS011;39886;47.984;-1.586;2023-12-07T13:24:38;3.25;;;1.60;;
53977;SDS011;39886;47.984;-1.586;2023-12-07T13:27:04;1.95;;;1.50;;
53977;SDS011;39886;47.984;-1.586;2023-12-07T13:29:29;1.92;;;1.50;;
53977;SDS011;39886;47.984;-1.586;2023-12-07T13:31:55;1.75;;;1.40;;
53977;SDS011;39886;47.984;-1.586;2023-12-07T13:34:23;1.90;;;1.30;;
53977;SDS011;39886;47.984;-1.586;2023-12-07T13:36:51;4.53;;;1.63;;
53977;SDS011;39886;47.984;-1.586;2023-12-07T13:39:16;1.77;;;1.40;;
53977;SDS011;39886;47.984;-1.586;2023-12-07T13:41:45;2.95;;;1.48;;
53977;SDS011;39886;47.984;-1.586;2023-12-07T13:44:14;2.22;;;1.40;;
53977;SDS011;39886;47.984;-1.586;2023-12-07T13:46:42;1.50;;;1.35;;
53977;SDS011;39886;47.984;-1.586;2023-12-07T13:49:08;3.70;;;1.70;;
53977;SDS011;39886;47.984;-1.586;2023-12-07T13:51:33;2.20;;;1.70;;
53977;SDS011;39886;47.984;-1.586;2023-12-07T13:53:59;3.38;;;2.00;;
53977;SDS011;39886;47.984;-1.586;2023-12-07T13:56:25;2.40;;;1.42;;
53977;SDS011;39886;47.984;-1.586;2023-12-07T13:58:51;3.15;;;1.90;;
53977;SDS011;39886;47.984;-1.586;2023-12-07T14:01:19;4.22;;;2.00;;
53977;SDS011;39886;47.984;-1.586;2023-12-07T14:03:46;4.32;;;2.05;;
53977;SDS011;39886;47.984;-1.586;2023-12-07T14:06:19;3.10;;;2.53;;
53977;SDS011;39886;47.984;-1.586;2023-12-07T14:08:47;3.78;;;1.92;;
53977;SDS011;39886;47.984;-1.586;2023-12-07T14:11:13;1.70;;;1.60;;
53977;SDS011;39886;47.984;-1.586;2023-12-07T14:13:39;2.97;;;1.90;;
53977;SDS011;39886;47.984;-1.586;2023-12-07T14:16:05;2.72;;;1.80;;
53977;SDS011;39886;47.984;-1.586;2023-12-07T14:18:33;4.68;;;1.67;;
53977;SDS011;39886;47.984;-1.586;2023-12-07T14:20:59;1.80;;;1.40;;
53977;SDS011;39886;47.984;-1.586;2023-12-07T14:23:25;4.15;;;1.65;;
53977;SDS011;39886;47.984;-1.586;2023-12-07T14:25:51;1.90;;;1.60;;
53977;SDS011;39886;47.984;-1.586;2023-12-07T14:28:17;1.50;;;1.35;;
53977;SDS011;39886;47.984;-1.586;2023-12-07T14:30:44;1.95;;;1.48;;
53977;SDS011;39886;47.984;-1.586;2023-12-07T14:33:09;2.22;;;1.40;;
53977;SDS011;39886;47.984;-1.586;2023-12-07T14:35:35;2.97;;;1.67;;
53977;SDS011;39886;47.984;-1.586;2023-12-07T14:38:01;4.50;;;1.52;;
53977;SDS011;39886;47.984;-1.586;2023-12-07T14:40:27;3.22;;;1.73;;